Time;durP1;ratioP1;P1;durP2;ratioP2;P2;SDS_P1;SDS_P2;PMS_P1;PMS_P2;Temp;Humidity;BMP_temperature;BMP_pressure;BME280_temperature;BME280_humidity;BME280_pressure;Samples;Min_cycle;Max_cycle;Signal;HPM_P1;HPM_P2
2023/01/22 00:01:17;;;;;;;16.92;11.95;;;;;;;-0.22;100.00;103515.72;4966758;28;20043;-78
2023/01/22 00:03:45;;;;;;;15.40;11.05;;;;;;;-0.24;100.00;103513.75;4946535;28;20045;-78
2023/01/22 00:06:14;;;;;;;20.55;12.05;;;;;;;-0.28;100.00;103509.06;4973058;28;20068;-78
2023/01/22 00:08:42;;;;;;;19.70;12.10;;;;;;;-0.31;100.00;103508.78;4911121;28;20496;-78
2023/01/22 00:11:10;;;;;;;16.73;10.68;;;;;;;-0.31;100.00;103520.06;4941429;28;20063;-79
2023/01/22 00:13:37;;;;;;;17.30;11.93;;;;;;;-0.32;100.00;103512.13;4943983;28;20057;-79
2023/01/22 00:16:05;;;;;;;16.38;11.48;;;;;;;-0.35;100.00;103515.38;4954388;28;20061;-79
2023/01/22 00:18:35;;;;;;;18.65;11.68;;;;;;;-0.36;100.00;103517.81;4961680;28;20428;-79
2023/01/22 00:21:02;;;;;;;16.15;11.85;;;;;;;-0.41;100.00;103520.91;4951352;28;20047;-79
2023/01/22 00:23:31;;;;;;;17.38;12.63;;;;;;;-0.42;100.00;103513.00;4929544;28;20043;-78
2023/01/22 00:26:10;;;;;;;18.48;12.57;;;;;;;-0.44;100.00;103510.25;4954900;28;20046;-78
2023/01/22 00:28:40;;;;;;;18.65;12.50;;;;;;;-0.45;100.00;103512.75;4949520;28;20031;-80
2023/01/22 00:31:09;;;;;;;15.70;11.98;;;;;;;-0.47;100.00;103512.59;4960134;28;20050;-79
2023/01/22 00:33:38;;;;;;;17.38;12.60;;;;;;;-0.50;100.00;103514.00;4954059;28;20058;-78
2023/01/22 00:36:12;;;;;;;19.83;12.27;;;;;;;-0.53;100.00;103519.81;4950124;28;20047;-79
2023/01/22 00:38:40;;;;;;;20.25;11.82;;;;;;;-0.57;100.00;103516.78;4942790;29;20047;-79
2023/01/22 00:41:09;;;;;;;20.60;12.70;;;;;;;-0.61;100.00;103515.59;4903126;28;20054;-79
2023/01/22 00:43:37;;;;;;;15.27;11.95;;;;;;;-0.63;100.00;103522.31;4917698;29;20059;-78
2023/01/22 00:46:10;;;;;;;17.48;12.18;;;;;;;-0.68;100.00;103520.97;4936047;29;20061;-79
2023/01/22 00:48:37;;;;;;;16.95;11.77;;;;;;;-0.73;100.00;103515.38;4950942;29;20047;-79
2023/01/22 00:51:07;;;;;;;19.02;11.93;;;;;;;-0.78;100.00;103511.47;4933803;29;20520;-78
2023/01/22 00:53:37;;;;;;;18.53;11.97;;;;;;;-0.84;100.00;103504.03;4906452;29;20088;-78
2023/01/22 00:56:05;;;;;;;18.58;12.13;;;;;;;-0.87;100.00;103498.59;4914729;29;20047;-77
2023/01/22 00:58:32;;;;;;;18.27;11.13;;;;;;;-0.92;100.00;103502.44;4921725;29;20402;-77
2023/01/22 01:01:01;;;;;;;20.42;12.15;;;;;;;-0.94;100.00;103503.06;4914469;29;20063;-76
2023/01/22 01:03:30;;;;;;;19.73;11.43;;;;;;;-0.98;100.00;103502.78;4933014;29;20063;-79
2023/01/22 01:06:05;;;;;;;14.68;11.27;;;;;;;-0.98;100.00;103496.69;4946035;29;20052;-78
2023/01/22 01:08:36;;;;;;;18.63;12.32;;;;;;;-0.99;100.00;103505.22;4929063;29;20051;-78
2023/01/22 01:11:07;;;;;;;22.85;11.60;;;;;;;-0.99;100.00;103500.94;4886436;29;20502;-78
2023/01/22 01:13:37;;;;;;;18.63;11.52;;;;;;;-0.95;100.00;103504.72;4929702;28;20052;-79
2023/01/22 01:16:08;;;;;;;18.88;12.35;;;;;;;-0.91;100.00;103504.22;4927874;29;20051;-79
2023/01/22 01:18:36;;;;;;;17.70;11.75;;;;;;;-0.85;100.00;103497.06;4922452;29;20039;-79
2023/01/22 01:21:03;;;;;;;20.08;11.35;;;;;;;-0.79;100.00;103499.28;4925426;29;20043;-78
2023/01/22 01:23:32;;;;;;;20.92;12.48;;;;;;;-0.72;100.00;103503.34;4949093;29;20048;-79
2023/01/22 01:26:04;;;;;;;16.58;11.13;;;;;;;-0.67;100.00;103499.50;4901018;29;20066;-78
2023/01/22 01:28:37;;;;;;;15.30;11.57;;;;;;;-0.61;100.00;103500.06;4923762;29;20040;-78
2023/01/22 01:31:07;;;;;;;15.70;10.98;;;;;;;-0.55;100.00;103500.59;4933092;29;20070;-78
2023/01/22 01:33:36;;;;;;;18.13;9.80;;;;;;;-0.51;100.00;103497.56;4952219;29;20055;-78
2023/01/22 01:36:10;;;;;;;15.00;9.75;;;;;;;-0.44;100.00;103506.75;4942034;28;20054;-79
2023/01/22 01:38:38;;;;;;;13.65;8.88;;;;;;;-0.37;100.00;103501.38;4942284;29;20054;-78
2023/01/22 01:41:11;;;;;;;13.83;9.63;;;;;;;-0.32;100.00;103492.34;4890638;29;22075;-78
2023/01/22 01:43:39;;;;;;;13.25;8.18;;;;;;;-0.25;100.00;103492.09;4923838;29;20497;-80
2023/01/22 01:46:23;;;;;;;12.30;7.72;;;;;;;-0.18;100.00;103496.16;4941707;29;20394;-78
2023/01/22 01:48:54;;;;;;;12.13;7.50;;;;;;;-0.13;100.00;103487.13;4930828;29;20048;-78
2023/01/22 01:51:30;;;;;;;10.50;7.80;;;;;;;-0.06;100.00;103484.31;4944628;29;20051;-78
2023/01/22 01:53:59;;;;;;;11.00;7.13;;;;;;;-0.01;100.00;103484.69;4931745;29;20051;-78
2023/01/22 01:56:38;;;;;;;10.48;7.13;;;;;;;0.05;100.00;103482.63;4948779;29;20412;-78
2023/01/22 01:59:10;;;;;;;11.70;7.07;;;;;;;0.09;100.00;103478.63;4898225;28;20054;-78
2023/01/22 02:01:38;;;;;;;11.45;6.53;;;;;;;0.14;100.00;103474.78;4946832;29;20047;-79
2023/01/22 02:04:06;;;;;;;9.18;5.72;;;;;;;0.18;100.00;103469.97;4921584;29;20047;-79
2023/01/22 02:06:36;;;;;;;14.65;6.13;;;;;;;0.21;100.00;103466.75;4934234;29;20409;-78
2023/01/22 02:09:03;;;;;;;14.65;6.38;;;;;;;0.23;100.00;103464.28;4924568;29;20075;-79
2023/01/22 02:11:33;;;;;;;5.47;4.03;;;;;;;0.24;100.00;103461.81;4934483;29;20051;-79
2023/01/22 02:14:05;;;;;;;6.45;5.00;;;;;;;0.23;100.00;103473.00;4888458;29;20051;-79
2023/01/22 02:16:33;;;;;;;8.63;4.90;;;;;;;0.27;100.00;103467.28;4947582;29;20055;-78
2023/01/22 02:19:01;;;;;;;5.97;4.70;;;;;;;0.28;100.00;103463.00;4907376;29;20040;-79
2023/01/22 02:21:43;;;;;;;5.85;4.78;;;;;;;0.29;100.00;103468.31;4945313;29;20047;-78
2023/01/22 02:24:13;;;;;;;7.18;4.85;;;;;;;0.30;100.00;103458.84;4900641;29;20066;-78
2023/01/22 02:26:43;;;;;;;7.85;4.95;;;;;;;0.30;100.00;103464.97;4918778;29;20052;-78
2023/01/22 02:29:15;;;;;;;7.03;4.35;;;;;;;0.33;100.00;103469.50;4912664;28;20046;-79
2023/01/22 02:31:42;;;;;;;4.95;4.45;;;;;;;0.34;100.00;103472.25;4943264;29;20065;-78
2023/01/22 02:34:10;;;;;;;5.20;4.70;;;;;;;0.35;100.00;103461.06;4931904;29;20054;-78
2023/01/22 02:36:40;;;;;;;7.75;4.68;;;;;;;0.36;100.00;103460.31;4950269;28;20047;-79
2023/01/22 02:39:08;;;;;;;9.57;4.88;;;;;;;0.38;100.00;103469.13;4944237;28;20803;-78
2023/01/22 02:41:37;;;;;;;7.97;5.30;;;;;;;0.39;100.00;103460.56;4948092;28;20067;-79
2023/01/22 02:44:06;;;;;;;5.78;4.53;;;;;;;0.39;100.00;103462.25;4896785;28;20069;-79
2023/01/22 02:46:33;;;;;;;7.45;5.20;;;;;;;0.40;100.00;103451.09;4925334;28;20599;-79
2023/01/22 02:49:01;;;;;;;6.45;4.60;;;;;;;0.39;100.00;103463.16;4966340;28;20043;-78
2023/01/22 02:51:31;;;;;;;7.22;4.85;;;;;;;0.39;100.00;103450.19;4952521;28;20058;-79
2023/01/22 02:53:58;;;;;;;5.13;4.63;;;;;;;0.38;100.00;103444.88;4949099;28;20044;-77
2023/01/22 02:56:26;;;;;;;7.20;4.38;;;;;;;0.36;100.00;103444.75;4945330;29;20055;-77
2023/01/22 02:58:53;;;;;;;7.00;4.97;;;;;;;0.36;100.00;103443.84;4933208;28;20051;-78
2023/01/22 03:01:23;;;;;;;9.32;4.60;;;;;;;0.35;100.00;103442.00;4932483;28;20054;-79
2023/01/22 03:04:00;;;;;;;7.95;4.30;;;;;;;0.35;100.00;103435.13;4951453;28;20050;-78
2023/01/22 03:06:28;;;;;;;5.05;4.00;;;;;;;0.36;100.00;103441.25;4950112;28;20050;-79
2023/01/22 03:08:59;;;;;;;6.15;4.18;;;;;;;0.35;100.00;103429.03;4963208;28;20058;-78
2023/01/22 03:11:30;;;;;;;6.75;3.72;;;;;;;0.33;100.00;103431.50;4935971;29;20058;-79
2023/01/22 03:22:25;;;;;;;6.55;3.67;;;;;;;0.32;100.00;103418.38;4955827;29;20058;-78
2023/01/22 03:24:53;;;;;;;4.10;3.50;;;;;;;0.30;100.00;103423.47;4948609;28;20055;-78
2023/01/22 03:27:25;;;;;;;3.45;3.13;;;;;;;0.31;100.00;103424.38;4947710;28;20054;-78
2023/01/22 03:29:53;;;;;;;5.53;3.60;;;;;;;0.31;100.00;103429.56;4955432;29;20051;-78
2023/01/22 03:32:22;;;;;;;6.05;3.90;;;;;;;0.33;100.00;103421.13;4888342;28;20043;-77
2023/01/22 03:34:52;;;;;;;4.88;3.55;;;;;;;0.34;100.00;103425.53;4958597;28;20063;-77
2023/01/22 03:37:21;;;;;;;5.20;3.88;;;;;;;0.37;100.00;103423.19;4954772;28;20051;-77
2023/01/22 03:39:51;;;;;;;4.50;3.58;;;;;;;0.36;100.00;103423.09;4959337;28;20058;-77
2023/01/22 03:42:31;;;;;;;6.17;3.90;;;;;;;0.37;100.00;103424.88;4960299;28;20050;-78
2023/01/22 03:44:59;;;;;;;4.80;3.80;;;;;;;0.38;100.00;103431.91;4976831;28;20302;-77
2023/01/22 03:47:27;;;;;;;5.97;3.72;;;;;;;0.39;100.00;103428.53;4898448;28;20058;-77
2023/01/22 03:49:54;;;;;;;6.30;3.80;;;;;;;0.42;100.00;103440.84;4956618;28;20055;-77
2023/01/22 03:52:22;;;;;;;4.65;3.85;;;;;;;0.42;100.00;103428.78;4956304;28;20051;-77
2023/01/22 03:54:49;;;;;;;5.50;4.03;;;;;;;0.43;100.00;103433.19;4977306;28;20038;-77
2023/01/22 03:57:16;;;;;;;7.05;4.43;;;;;;;0.45;100.00;103428.13;4949096;28;20059;-77
2023/01/22 03:59:45;;;;;;;6.95;4.57;;;;;;;0.45;100.00;103425.53;4962732;28;20070;-77
2023/01/22 04:02:12;;;;;;;6.13;4.00;;;;;;;0.46;100.00;103429.97;4947599;28;20042;-77
2023/01/22 04:04:59;;;;;;;8.80;3.95;;;;;;;0.47;100.00;103427.47;4931487;29;20063;-78
2023/01/22 04:07:27;;;;;;;6.47;4.43;;;;;;;0.48;100.00;103438.78;4935351;29;20051;-78
2023/01/22 04:09:55;;;;;;;9.73;4.07;;;;;;;0.47;100.00;103422.28;4959406;28;20054;-77
2023/01/22 04:12:24;;;;;;;5.45;3.78;;;;;;;0.48;100.00;103433.59;4953882;28;20053;-79
2023/01/22 04:14:51;;;;;;;8.63;4.05;;;;;;;0.46;100.00;103436.06;4942215;28;20057;-78
2023/01/22 04:17:20;;;;;;;9.75;4.05;;;;;;;0.47;100.00;103442.16;4936409;28;20051;-78
2023/01/22 04:19:50;;;;;;;8.55;3.80;;;;;;;0.48;100.00;103443.97;4947290;29;20047;-78
2023/01/22 04:22:18;;;;;;;4.13;3.72;;;;;;;0.47;100.00;103439.56;4937980;28;20046;-78
2023/01/22 04:24:48;;;;;;;3.28;2.95;;;;;;;0.48;100.00;103441.38;4937227;28;20055;-78
2023/01/22 04:27:15;;;;;;;4.97;3.35;;;;;;;0.47;100.00;103436.97;4943966;28;20051;-78
2023/01/22 04:29:42;;;;;;;6.20;3.78;;;;;;;0.46;100.00;103429.97;4936520;29;20062;-78
2023/01/22 04:32:10;;;;;;;6.82;3.58;;;;;;;0.45;100.00;103438.50;4941215;28;20051;-78
2023/01/22 04:34:59;;;;;;;5.60;3.63;;;;;;;0.44;100.00;103429.84;4891786;29;20081;-77
2023/01/22 04:37:42;;;;;;;5.50;3.90;;;;;;;0.43;100.00;103440.06;4942530;29;20056;-78
2023/01/22 04:40:10;;;;;;;5.25;3.60;;;;;;;0.40;100.00;103427.75;4930375;29;20505;-79
2023/01/22 04:42:38;;;;;;;6.20;3.92;;;;;;;0.39;100.00;103431.13;4919459;29;20497;-79
2023/01/22 04:45:06;;;;;;;4.90;3.78;;;;;;;0.35;100.00;103432.53;4931473;29;20062;-78
2023/01/22 04:47:39;;;;;;;5.80;3.30;;;;;;;0.33;100.00;103449.66;4943063;29;20043;-78
2023/01/22 04:50:11;;;;;;;11.80;4.28;;;;;;;0.30;100.00;103452.00;4892027;29;20055;-78
2023/01/22 04:52:40;;;;;;;6.03;3.95;;;;;;;0.31;100.00;103447.72;4947356;29;20051;-78
2023/01/22 04:55:09;;;;;;;6.20;3.90;;;;;;;0.29;100.00;103436.31;4919967;29;20051;-77
2023/01/22 04:57:46;;;;;;;4.18;3.50;;;;;;;0.27;100.00;103449.13;4920978;29;20564;-78
2023/01/22 05:00:14;;;;;;;6.07;4.25;;;;;;;0.24;100.00;103455.72;4910068;29;20048;-78
2023/01/22 05:02:41;;;;;;;5.72;3.88;;;;;;;0.23;100.00;103448.72;4893764;29;20056;-78
2023/01/22 05:05:09;;;;;;;6.82;3.95;;;;;;;0.22;100.00;103457.28;4908308;29;20052;-77
2023/01/22 05:07:37;;;;;;;4.47;3.70;;;;;;;0.18;100.00;103462.19;4929899;28;20058;-78
2023/01/22 05:10:05;;;;;;;4.97;3.60;;;;;;;0.16;100.00;103466.34;4932931;29;20047;-78
2023/01/22 05:12:33;;;;;;;7.10;4.50;;;;;;;0.16;100.00;103468.03;4911003;29;20058;-78
2023/01/22 05:15:01;;;;;;;4.10;3.47;;;;;;;0.14;100.00;103478.25;4932777;29;20076;-78
2023/01/22 05:17:34;;;;;;;4.25;3.85;;;;;;;0.12;100.00;103468.53;4909026;29;20043;-78
2023/01/22 05:20:01;;;;;;;11.32;4.28;;;;;;;0.11;100.00;103465.03;4932841;29;20058;-78
2023/01/22 05:22:29;;;;;;;4.43;3.70;;;;;;;0.11;100.00;103469.31;4863345;29;20039;-78
2023/01/22 05:24:57;;;;;;;6.47;3.80;;;;;;;0.09;100.00;103463.09;4905520;29;20062;-78
2023/01/22 05:27:25;;;;;;;7.68;4.40;;;;;;;0.06;100.00;103465.38;4925489;29;20503;-77
2023/01/22 05:30:00;;;;;;;13.55;4.50;;;;;;;0.05;100.00;103467.09;4897931;29;20512;-78
2023/01/22 05:32:37;;;;;;;5.32;4.72;;;;;;;0.06;100.00;103467.97;4909528;29;20790;-78
2023/01/22 05:35:06;;;;;;;6.22;4.38;;;;;;;0.05;100.00;103469.69;4916245;28;20508;-78
2023/01/22 05:37:37;;;;;;;5.95;4.40;;;;;;;0.06;100.00;103476.69;4913610;28;20047;-78
2023/01/22 05:40:07;;;;;;;6.32;4.50;;;;;;;0.06;100.00;103476.69;4938018;28;20065;-78
2023/01/22 05:42:35;;;;;;;5.10;4.60;;;;;;;0.05;100.00;103477.44;4907726;28;20051;-78
2023/01/22 05:45:05;;;;;;;6.43;4.90;;;;;;;0.05;100.00;103476.56;4947849;28;20420;-77
2023/01/22 05:47:39;;;;;;;6.65;5.07;;;;;;;0.06;100.00;103475.75;4942104;29;20059;-78
2023/01/22 05:50:12;;;;;;;8.85;5.10;;;;;;;0.03;100.00;103489.38;4941344;28;20047;-78
2023/01/22 05:52:40;;;;;;;7.07;4.68;;;;;;;0.03;100.00;103466.03;4894532;28;20062;-78
2023/01/22 05:55:08;;;;;;;7.25;4.70;;;;;;;0.01;100.00;103482.25;4936383;28;20066;-78
2023/01/22 05:57:41;;;;;;;6.25;4.55;;;;;;;-0.04;100.00;103477.56;4943397;28;20520;-78
2023/01/22 06:00:11;;;;;;;6.53;5.93;;;;;;;-0.07;100.00;103484.16;4949352;28;20062;-78
2023/01/22 06:02:43;;;;;;;6.45;4.78;;;;;;;-0.09;100.00;103493.50;4934086;28;20062;-78
2023/01/22 06:05:13;;;;;;;6.53;4.70;;;;;;;-0.09;100.00;103483.13;4936424;28;20061;-78
2023/01/22 06:07:42;;;;;;;5.85;5.13;;;;;;;-0.09;100.00;103491.81;4897130;28;20051;-79
2023/01/22 06:10:09;;;;;;;8.23;5.22;;;;;;;-0.09;100.00;103488.31;4927014;28;20055;-77
2023/01/22 06:12:43;;;;;;;5.68;4.93;;;;;;;-0.10;100.00;103484.78;4938670;28;20055;-78
2023/01/22 06:15:11;;;;;;;5.80;5.00;;;;;;;-0.10;100.00;103484.78;4947348;29;20055;-78
2023/01/22 06:17:43;;;;;;;6.55;5.00;;;;;;;-0.08;100.00;103480.63;4929832;29;20062;-78
2023/01/22 06:20:11;;;;;;;7.72;5.20;;;;;;;-0.10;100.00;103486.47;4964200;28;20050;-78
2023/01/22 06:22:38;;;;;;;6.80;4.95;;;;;;;-0.13;100.00;103493.97;4931315;29;20058;-78
2023/01/22 06:25:08;;;;;;;5.88;5.15;;;;;;;-0.17;100.00;103487.63;4905693;29;20434;-78
2023/01/22 06:28:07;;;;;;;6.03;4.75;;;;;;;-0.18;100.00;103483.19;4930713;28;20058;-78
2023/01/22 06:30:36;;;;;;;5.68;4.80;;;;;;;-0.18;100.00;103479.72;4941668;28;20414;-78
2023/01/22 06:33:03;;;;;;;7.68;5.15;;;;;;;-0.20;100.00;103475.28;4938822;28;20050;-78
2023/01/22 06:35:32;;;;;;;5.72;5.22;;;;;;;-0.20;100.00;103475.28;4906917;28;1136158;-78
2023/01/22 06:37:59;;;;;;;5.53;5.03;;;;;;;-0.18;100.00;103478.00;4923695;29;20706;-78
2023/01/22 06:40:30;;;;;;;7.22;5.43;;;;;;;-0.18;100.00;103478.00;4887913;29;20081;-78
2023/01/22 06:43:01;;;;;;;6.30;5.38;;;;;;;-0.18;100.00;103480.59;4921915;28;20062;-78
2023/01/22 06:45:29;;;;;;;7.00;5.93;;;;;;;-0.19;100.00;103481.38;4938365;28;20054;-79
2023/01/22 06:48:01;;;;;;;8.40;5.68;;;;;;;-0.20;100.00;103483.06;4959592;28;20059;-78
2023/01/22 06:50:28;;;;;;;9.07;6.13;;;;;;;-0.17;100.00;103481.50;4935132;28;20898;-78
2023/01/22 06:52:56;;;;;;;7.22;6.13;;;;;;;-0.18;100.00;103493.56;4941613;28;20047;-78
2023/01/22 06:55:23;;;;;;;11.13;6.10;;;;;;;-0.20;100.00;103490.84;4903052;28;20047;-78
2023/01/22 06:57:53;;;;;;;5.45;4.95;;;;;;;-0.22;100.00;103489.78;4921810;28;20054;-78
2023/01/22 07:00:21;;;;;;;5.50;5.00;;;;;;;-0.22;100.00;103494.06;4946230;28;20047;-79
2023/01/22 07:02:49;;;;;;;6.25;5.32;;;;;;;-0.23;100.00;103498.34;4965268;28;20049;-79
2023/01/22 07:05:18;;;;;;;5.28;4.88;;;;;;;-0.23;100.00;103502.59;4944202;28;20066;-79
2023/01/22 07:07:46;;;;;;;7.15;5.70;;;;;;;-0.24;100.00;103504.28;4938416;29;20062;-78
2023/01/22 07:10:14;;;;;;;6.78;5.63;;;;;;;-0.24;100.00;103503.41;4907379;29;20702;-78
2023/01/22 07:12:41;;;;;;;6.45;5.47;;;;;;;-0.22;100.00;103496.66;4922811;28;20043;-79
2023/01/22 07:15:09;;;;;;;6.07;5.28;;;;;;;-0.21;100.00;103498.47;4953512;28;20062;-79
2023/01/22 07:17:36;;;;;;;6.85;6.15;;;;;;;-0.21;100.00;103501.06;4934398;29;20055;-78
2023/01/22 07:20:04;;;;;;;8.30;5.35;;;;;;;-0.22;100.00;103496.66;4958879;28;20047;-79
2023/01/22 07:22:31;;;;;;;6.15;5.35;;;;;;;-0.22;100.00;103507.03;4945665;28;20031;-78
2023/01/22 07:24:58;;;;;;;7.00;5.43;;;;;;;-0.24;100.00;103504.28;4916936;29;20078;-79
2023/01/22 07:27:26;;;;;;;6.15;5.50;;;;;;;-0.26;100.00;103484.22;4908111;28;20506;-78
2023/01/22 07:29:53;;;;;;;6.03;5.43;;;;;;;-0.24;100.00;103493.94;4906818;28;20055;-77
2023/01/22 07:32:20;;;;;;;5.78;5.10;;;;;;;-0.23;100.00;103493.16;4942008;28;20051;-79
2023/01/22 07:34:48;;;;;;;8.30;5.93;;;;;;;-0.24;100.00;103491.34;4947495;28;20407;-79
2023/01/22 07:37:15;;;;;;;7.70;5.30;;;;;;;-0.23;100.00;103495.75;4945699;28;20066;-79
2023/01/22 07:39:42;;;;;;;5.60;5.05;;;;;;;-0.23;100.00;103492.22;4944799;29;20296;-78
2023/01/22 07:42:11;;;;;;;5.68;4.32;;;;;;;-0.22;100.00;103488.88;4907174;29;20044;-79
2023/01/22 07:44:41;;;;;;;7.65;6.13;;;;;;;-0.20;100.00;103495.13;4917685;28;20058;-79
2023/01/22 07:47:09;;;;;;;9.25;5.32;;;;;;;-0.18;100.00;103501.34;4923735;28;20066;-78
2023/01/22 07:49:36;;;;;;;7.15;4.78;;;;;;;-0.19;100.00;103512.47;4943998;29;20054;-78
2023/01/22 07:52:03;;;;;;;6.65;5.78;;;;;;;-0.18;100.00;103503.94;4964426;28;20035;-78
2023/01/22 07:54:35;;;;;;;7.30;5.50;;;;;;;-0.18;100.00;103505.63;4967819;28;20054;-78
2023/01/22 07:57:03;;;;;;;5.78;4.50;;;;;;;-0.18;100.00;103513.41;4900882;29;20476;-78
2023/01/22 07:59:30;;;;;;;5.78;5.00;;;;;;;-0.21;100.00;103525.31;4947594;28;20047;-78
2023/01/22 08:01:57;;;;;;;8.13;5.18;;;;;;;-0.24;100.00;103513.75;4966345;28;20059;-78
2023/01/22 08:04:27;;;;;;;8.27;4.95;;;;;;;-0.24;100.00;103518.94;4963661;28;20071;-78
2023/01/22 08:06:55;;;;;;;8.43;4.22;;;;;;;-0.24;100.00;103513.75;4950525;28;20062;-79
2023/01/22 08:09:24;;;;;;;6.47;4.28;;;;;;;-0.26;100.00;103517.91;4933334;28;20051;-77
2023/01/22 08:11:52;;;;;;;9.82;5.68;;;;;;;-0.26;100.00;103507.53;4961484;28;20043;-78
2023/01/22 08:14:19;;;;;;;8.32;5.10;;;;;;;-0.25;100.00;103509.34;4896113;28;20058;-78
2023/01/22 08:16:46;;;;;;;6.18;5.30;;;;;;;-0.24;100.00;103518.94;4927418;28;20059;-77
2023/01/22 08:19:14;;;;;;;5.47;4.95;;;;;;;-0.23;100.00;103520.75;4953919;28;20047;-77
2023/01/22 08:21:41;;;;;;;7.53;5.40;;;;;;;-0.23;100.00;103516.50;4950681;28;20047;-79
2023/01/22 08:24:11;;;;;;;7.18;4.80;;;;;;;-0.24;100.00;103519.84;4918331;29;20039;-77
2023/01/22 08:26:38;;;;;;;5.45;4.20;;;;;;;-0.24;100.00;103519.84;4959494;28;20058;-78
2023/01/22 08:29:06;;;;;;;7.00;5.15;;;;;;;-0.23;100.00;103518.16;4909249;28;20047;-77
2023/01/22 08:31:34;;;;;;;7.15;5.18;;;;;;;-0.23;100.00;103510.38;4923955;28;20062;-77
2023/01/22 08:34:02;;;;;;;7.80;4.97;;;;;;;-0.22;100.00;103515.72;4951579;28;20039;-77
2023/01/22 08:36:29;;;;;;;7.43;4.72;;;;;;;-0.20;100.00;103514.16;4946076;29;20814;-77
2023/01/22 08:38:56;;;;;;;10.43;5.22;;;;;;;-0.18;100.00;103522.06;4945499;29;20054;-78
2023/01/22 08:41:24;;;;;;;7.57;5.18;;;;;;;-0.18;100.00;103510.81;4924892;28;20034;-78
2023/01/22 08:43:52;;;;;;;6.80;5.38;;;;;;;-0.16;100.00;103511.84;4899686;29;20051;-77
2023/01/22 08:46:19;;;;;;;7.78;5.40;;;;;;;-0.13;100.00;103510.44;4935136;28;20054;-77
2023/01/22 08:48:47;;;;;;;9.20;5.47;;;;;;;-0.09;100.00;103509.94;4947296;28;20055;-77
2023/01/22 08:51:15;;;;;;;8.27;5.50;;;;;;;-0.04;100.00;103512.94;4951949;28;20405;-77
2023/01/22 08:53:42;;;;;;;6.50;5.10;;;;;;;-0.05;100.00;103519.81;4937576;28;20793;-78
2023/01/22 08:56:10;;;;;;;6.00;5.30;;;;;;;-0.03;100.00;103513.06;4968229;28;20098;-78
2023/01/22 08:58:37;;;;;;;4.93;4.40;;;;;;;0.02;100.00;103517.75;4967480;28;20054;-77
2023/01/22 09:01:05;;;;;;;9.82;5.45;;;;;;;0.03;100.00;103522.19;4926450;28;20081;-77
2023/01/22 09:03:32;;;;;;;5.60;4.80;;;;;;;0.04;100.00;103531.75;4940021;28;20035;-77
2023/01/22 09:06:00;;;;;;;6.75;5.72;;;;;;;0.06;100.00;103536.31;4951993;28;20049;-78
2023/01/22 09:08:27;;;;;;;6.38;5.55;;;;;;;0.05;100.00;103536.19;4930988;29;20047;-78
2023/01/22 09:10:54;;;;;;;10.48;5.72;;;;;;;0.05;100.00;103539.69;4939224;28;20051;-78
2023/01/22 09:13:21;;;;;;;7.03;5.80;;;;;;;0.04;100.00;103537.88;4944735;28;20757;-77
2023/01/22 09:15:49;;;;;;;7.40;6.15;;;;;;;0.06;100.00;103541.50;4903213;28;20531;-77
2023/01/22 09:18:16;;;;;;;9.77;5.93;;;;;;;0.08;100.00;103533.88;4954775;28;20047;-78
2023/01/22 09:20:44;;;;;;;9.68;5.65;;;;;;;0.09;100.00;103538.28;4940117;28;20061;-77
2023/01/22 09:23:11;;;;;;;7.85;5.55;;;;;;;0.13;100.00;103540.34;4928561;28;20500;-79
2023/01/22 09:25:41;;;;;;;5.93;5.32;;;;;;;0.17;100.00;103539.84;4948311;28;20081;-79
2023/01/22 09:28:11;;;;;;;7.28;5.97;;;;;;;0.20;100.00;103540.13;4961504;28;20050;-78
2023/01/22 09:30:39;;;;;;;8.60;5.57;;;;;;;0.23;100.00;103531.69;4904562;28;20776;-78
2023/01/22 09:33:07;;;;;;;5.60;5.05;;;;;;;0.29;100.00;103537.47;4935577;28;20050;-79
2023/01/22 09:35:35;;;;;;;6.40;5.80;;;;;;;0.34;100.00;103541.34;4959436;28;20612;-78
2023/01/22 09:38:04;;;;;;;6.93;5.45;;;;;;;0.40;100.00;103534.13;4944558;28;20963;-78
2023/01/22 09:40:43;;;;;;;8.13;5.68;;;;;;;0.42;100.00;103531.63;4941147;28;20046;-78
2023/01/22 09:43:35;;;;;;;8.68;5.80;;;;;;;0.44;100.00;103535.31;4938709;28;20042;-78
2023/01/22 09:46:14;;;;;;;6.57;5.18;;;;;;;0.45;100.00;103527.63;4917616;28;20069;-78
2023/01/22 09:48:46;;;;;;;6.55;5.72;;;;;;;0.49;100.00;103523.63;4940774;28;20130;-78
2023/01/22 09:51:15;;;;;;;7.38;6.05;;;;;;;0.51;100.00;103530.78;4940007;28;20051;-78
2023/01/22 09:53:49;;;;;;;6.55;5.90;;;;;;;0.54;100.00;103532.72;4948037;28;20054;-78
2023/01/22 09:56:20;;;;;;;7.75;5.53;;;;;;;0.60;100.00;103540.13;4947547;28;20123;-78
2023/01/22 09:58:53;;;;;;;7.28;6.43;;;;;;;0.64;100.00;103543.09;4957572;28;20091;-78
2023/01/22 10:01:22;;;;;;;5.95;5.45;;;;;;;0.65;100.00;103544.03;4908030;28;20063;-78
2023/01/22 10:03:55;;;;;;;8.63;6.13;;;;;;;0.63;100.00;103548.19;4933768;28;20058;-79
2023/01/22 10:06:24;;;;;;;7.32;5.82;;;;;;;0.60;100.00;103555.69;4930468;28;20061;-78
2023/01/22 10:09:00;;;;;;;5.28;4.78;;;;;;;0.57;100.00;103544.28;4956365;28;20054;-78
2023/01/22 10:11:28;;;;;;;6.85;5.32;;;;;;;0.52;100.00;103553.34;4947408;28;20054;-78
2023/01/22 10:13:59;;;;;;;8.45;5.53;;;;;;;0.54;100.00;103553.47;4950032;28;20047;-78
2023/01/22 10:16:26;;;;;;;;;;;;;;;0.56;100.00;103546.75;4906983;28;23027;-77
2023/01/22 10:19:19;;;;;;;6.60;5.90;;;;;;;0.60;100.00;103548.81;4954778;28;19923;-78
2023/01/22 10:21:51;;;;;;;7.18;5.43;;;;;;;0.61;100.00;103542.88;4887567;28;20390;-78
2023/01/22 10:24:18;;;;;;;6.38;5.78;;;;;;;0.62;100.00;103536.88;4951167;28;20039;-77
2023/01/22 10:26:54;;;;;;;8.18;5.68;;;;;;;0.67;100.00;103534.69;4932778;28;20078;-77
2023/01/22 10:29:36;;;;;;;5.90;5.22;;;;;;;0.69;100.00;103534.03;4920390;28;20331;-77
2023/01/22 10:32:24;;;;;;;7.07;6.00;;;;;;;0.72;100.00;103529.13;4902404;28;20050;-78
2023/01/22 10:34:58;;;;;;;8.40;6.13;;;;;;;0.76;100.00;103519.94;4921988;28;20751;-78
2023/01/22 10:37:26;;;;;;;11.38;5.55;;;;;;;0.79;100.00;103525.34;4932115;28;20059;-77
2023/01/22 10:39:58;;;;;;;6.32;5.72;;;;;;;0.82;100.00;103519.53;4937209;28;20061;-77
2023/01/22 10:42:28;;;;;;;6.88;6.18;;;;;;;0.86;100.00;103521.63;4910025;28;20058;-77
2023/01/22 10:45:07;;;;;;;6.45;5.72;;;;;;;0.91;100.00;103517.75;4922032;29;20059;-77
2023/01/22 10:47:35;;;;;;;6.47;5.75;;;;;;;0.95;100.00;103525.91;4905737;28;20100;-77
2023/01/22 10:50:09;;;;;;;6.80;6.05;;;;;;;1.01;100.00;103529.81;4911975;28;20055;-79
2023/01/22 10:52:54;;;;;;;8.05;5.63;;;;;;;1.01;100.00;103517.72;4934009;28;20058;-78
2023/01/22 10:55:28;;;;;;;7.38;6.00;;;;;;;1.03;100.00;103520.47;4925242;29;20059;-78
2023/01/22 10:58:02;;;;;;;7.07;5.50;;;;;;;1.07;100.00;103517.34;4907680;28;20090;-77
2023/01/22 11:00:36;;;;;;;6.22;5.72;;;;;;;1.12;100.00;103513.44;4922747;29;20054;-77
2023/01/22 11:03:23;;;;;;;7.10;6.13;;;;;;;1.16;100.00;103519.03;4912779;28;20044;-77
2023/01/22 11:05:56;;;;;;;5.85;5.28;;;;;;;1.23;100.00;103519.53;4895852;29;20082;-77
2023/01/22 11:08:29;;;;;;;8.60;5.70;;;;;;;1.25;100.00;103516.31;4925612;29;20059;-77
2023/01/22 11:11:02;;;;;;;7.75;5.32;;;;;;;1.28;100.00;103513.94;4917167;29;20047;-78
2023/01/22 11:13:52;;;;;;;8.25;5.68;;;;;;;1.32;100.00;103509.91;4927029;29;20043;-78
2023/01/22 11:16:22;;;;;;;6.38;5.55;;;;;;;1.35;100.00;103520.56;4919383;29;20043;-79
2023/01/22 11:19:15;;;;;;;5.97;4.63;;;;;;;1.36;100.00;103519.78;4899815;28;20058;-79
2023/01/22 11:21:56;;;;;;;6.18;5.25;;;;;;;1.34;100.00;103508.34;4920344;28;20043;-78
2023/01/22 11:24:32;;;;;;;7.00;5.32;;;;;;;1.36;100.00;103511.97;4924940;28;20043;-79
2023/01/22 11:27:02;;;;;;;10.02;5.03;;;;;;;1.38;100.00;103509.50;4925917;29;20054;-79
2023/01/22 11:29:56;;;;;;;6.55;5.93;;;;;;;1.36;100.00;103510.31;4936759;29;20509;-79
2023/01/22 11:32:53;;;;;;;6.03;5.43;;;;;;;1.39;100.00;103517.44;4944272;28;20055;-79
2023/01/22 11:35:37;;;;;;;7.97;5.53;;;;;;;1.39;100.00;103520.03;4905689;28;20580;-79
2023/01/22 11:38:35;;;;;;;9.80;5.53;;;;;;;1.41;100.00;103509.78;4925330;28;20050;-77
2023/01/22 11:41:11;;;;;;;8.60;5.65;;;;;;;1.40;100.00;103516.69;4954752;28;20086;-77
2023/01/22 11:44:14;;;;;;;5.72;5.13;;;;;;;1.38;100.00;103506.91;4933529;28;20400;-77